Time;durP1;ratioP1;P1;durP2;ratioP2;P2;SDS_P1;SDS_P2;PMS_P1;PMS_P2;Temp;Humidity;BMP_temperature;BMP_pressure;BME280_temperature;BME280_humidity;BME280_pressure;Samples;Min_cycle;Max_cycle;Signal;HPM_P1;HPM_P2
2022/01/04 00:01:20;;;;;;;47.08;44.45;;;;;;;7.69;100.00;100812.84;5070756;28;20485;-80
2022/01/04 00:03:47;;;;;;;52.53;49.63;;;;;;;7.63;100.00;100824.16;5074027;28;20048;-80
2022/01/04 00:06:13;;;;;;;47.50;44.90;;;;;;;7.63;100.00;100818.88;5071593;28;20185;-79
2022/01/04 00:08:42;;;;;;;43.58;41.08;;;;;;;7.64;100.00;100816.03;5063680;28;20127;-78
2022/01/04 00:11:15;;;;;;;46.78;44.17;;;;;;;7.54;100.00;100821.63;5069164;28;20543;-77
2022/01/04 00:13:42;;;;;;;43.85;41.38;;;;;;;7.53;100.00;100824.44;5071801;28;20072;-78
2022/01/04 00:16:10;;;;;;;42.47;40.15;;;;;;;7.48;100.00;100832.91;5072545;28;20041;-77
2022/01/04 00:18:37;;;;;;;45.67;42.83;;;;;;;7.40;100.00;100832.19;5073357;28;20053;-78
2022/01/04 00:21:05;;;;;;;47.20;44.50;;;;;;;7.50;100.00;100833.56;5071959;28;20118;-78
2022/01/04 00:23:32;;;;;;;46.00;43.30;;;;;;;7.32;100.00;100822.50;5070100;28;20541;-80
2022/01/04 00:26:00;;;;;;;43.95;41.42;;;;;;;7.51;100.00;100827.25;5073709;28;20055;-79
2022/01/04 00:28:27;;;;;;;44.08;41.47;;;;;;;7.30;100.00;100838.56;5072871;28;20045;-78
2022/01/04 00:30:54;;;;;;;42.70;39.30;;;;;;;7.25;100.00;100834.81;5069387;28;20127;-79
2022/01/04 00:33:21;;;;;;;46.08;43.47;;;;;;;7.41;100.00;100828.53;5074068;28;20109;-80
2022/01/04 00:35:48;;;;;;;51.15;48.40;;;;;;;7.43;100.00;100823.91;5072087;28;20045;-82
2022/01/04 00:38:16;;;;;;;48.95;46.45;;;;;;;7.30;100.00;100825.34;5070815;28;20044;-82
2022/01/04 00:40:42;;;;;;;47.75;45.15;;;;;;;7.43;100.00;100831.81;5070609;28;20056;-78
2022/01/04 00:43:11;;;;;;;48.28;45.75;;;;;;;7.34;100.00;100852.22;5071096;28;20435;-78
2022/01/04 00:45:38;;;;;;;45.38;42.97;;;;;;;7.41;100.00;100865.53;5068716;28;20052;-78
2022/01/04 00:50:50;;;;;;;46.60;44.20;;;;;;;7.33;100.00;100869.09;5070396;28;20055;-78
2022/01/04 00:53:17;;;;;;;48.58;45.97;;;;;;;7.45;100.00;100874.75;5070923;28;20477;-79
2022/01/04 00:55:44;;;;;;;46.50;44.03;;;;;;;7.45;100.00;100880.03;5072196;28;20041;-78
2022/01/04 00:58:12;;;;;;;44.45;42.25;;;;;;;7.45;100.00;100870.28;5070288;28;20052;-79
2022/01/04 01:00:40;;;;;;;47.85;45.15;;;;;;;7.44;100.00;100876.56;5073013;28;20045;-79
2022/01/04 01:03:08;;;;;;;46.85;44.15;;;;;;;7.29;100.00;100867.78;5071068;28;20489;-79
2022/01/04 01:05:35;;;;;;;43.97;41.58;;;;;;;7.31;100.00;100866.63;5069838;28;20044;-77
2022/01/04 01:08:02;;;;;;;43.60;40.85;;;;;;;7.31;100.00;100856.03;5070905;28;20067;-79
2022/01/04 01:10:43;;;;;;;46.58;44.33;;;;;;;7.25;100.00;100853.31;5072050;28;20114;-79
2022/01/04 01:13:12;;;;;;;48.50;45.90;;;;;;;7.32;100.00;100864.78;5069783;28;20059;-77
2022/01/04 01:15:41;;;;;;;48.05;45.53;;;;;;;7.20;100.00;100867.06;5073148;28;20052;-79
2022/01/04 01:18:08;;;;;;;48.13;45.53;;;;;;;7.32;100.00;100864.78;5072078;28;20051;-78
2022/01/04 01:20:35;;;;;;;46.03;43.60;;;;;;;7.17;100.00;100869.22;5070712;28;20044;-80
2022/01/04 01:23:02;;;;;;;46.17;43.92;;;;;;;7.17;100.00;100864.78;5068682;28;20541;-77
2022/01/04 01:25:29;;;;;;;49.15;46.53;;;;;;;7.22;100.00;100859.78;5070845;28;20048;-80
2022/01/04 01:27:55;;;;;;;49.45;46.55;;;;;;;7.14;100.00;100870.44;5071938;28;20059;-79
2022/01/04 01:30:25;;;;;;;48.28;45.75;;;;;;;7.13;100.00;100863.50;5072126;28;20455;-80
2022/01/04 01:32:53;;;;;;;52.15;49.35;;;;;;;7.14;100.00;100862.50;5071226;28;20459;-82
2022/01/04 01:35:20;;;;;;;60.88;57.67;;;;;;;7.10;100.00;100850.66;5068607;28;20052;-80
2022/01/04 01:37:46;;;;;;;48.05;45.40;;;;;;;7.15;100.00;100863.31;5069977;28;20134;-80
2022/01/04 01:40:13;;;;;;;51.05;48.35;;;;;;;7.13;100.00;100849.47;5069965;28;20040;-79
2022/01/04 01:42:40;;;;;;;52.63;49.80;;;;;;;7.17;100.00;100856.88;5070211;28;20569;-80
2022/01/04 01:45:09;;;;;;;49.20;46.17;;;;;;;7.11;100.00;100852.31;5071462;28;20048;-78
2022/01/04 01:47:39;;;;;;;51.00;48.42;;;;;;;7.33;100.00;100847.94;5070782;28;20423;-79
2022/01/04 01:50:07;;;;;;;51.53;48.83;;;;;;;7.20;100.00;100851.22;5067855;28;20131;-79
2022/01/04 01:52:34;;;;;;;52.00;49.00;;;;;;;7.14;100.00;100862.50;5071952;28;20113;-79
2022/01/04 01:55:01;;;;;;;48.72;45.92;;;;;;;7.10;100.00;100851.47;5069509;28;20056;-79
2022/01/04 01:57:27;;;;;;;51.72;48.88;;;;;;;6.88;100.00;100853.16;5070209;28;20052;-80
2022/01/04 01:59:54;;;;;;;58.70;55.60;;;;;;;7.04;100.00;100854.00;5070530;28;20049;-79
2022/01/04 02:02:21;;;;;;;50.60;47.67;;;;;;;7.06;100.00;100857.28;5072953;28;20056;-81
2022/01/04 02:04:49;;;;;;;54.50;51.30;;;;;;;7.22;100.00;100846.56;5069018;28;20049;-78
2022/01/04 02:07:17;;;;;;;53.28;50.28;;;;;;;7.17;100.00;100846.31;5065591;28;20404;-77
2022/01/04 02:09:52;;;;;;;50.15;47.45;;;;;;;7.17;100.00;100843.66;5069509;28;20098;-77
2022/01/04 02:12:20;;;;;;;52.22;49.22;;;;;;;6.97;100.00;100848.63;5067439;28;20476;-79
2022/01/04 02:14:49;;;;;;;53.28;50.30;;;;;;;6.91;100.00;100848.53;5068530;28;20048;-80
2022/01/04 02:17:16;;;;;;;55.92;53.03;;;;;;;6.80;100.00;100847.94;5070543;28;20167;-78
2022/01/04 02:19:44;;;;;;;48.00;45.30;;;;;;;6.88;100.00;100845.22;5071572;28;20048;-80
2022/01/04 02:22:11;;;;;;;56.97;53.63;;;;;;;6.87;100.00;100840.97;5067728;28;20489;-79
2022/01/04 02:24:37;;;;;;;57.58;54.22;;;;;;;6.80;100.00;100841.84;5070457;28;20049;-80
2022/01/04 02:27:05;;;;;;;51.53;48.63;;;;;;;6.75;100.00;100841.56;5071945;28;20114;-79
2022/01/04 02:29:32;;;;;;;65.85;62.05;;;;;;;6.80;100.00;100847.94;5064489;28;20044;-79
2022/01/04 02:31:59;;;;;;;63.33;60.10;;;;;;;6.83;100.00;100852.84;5070397;28;20041;-80
2022/01/04 02:34:25;;;;;;;60.25;56.92;;;;;;;6.47;100.00;100850.00;5070948;28;20063;-81
2022/01/04 02:36:53;;;;;;;64.30;61.05;;;;;;;6.58;100.00;100854.88;5071176;28;20460;-79
2022/01/04 02:39:21;;;;;;;66.82;63.05;;;;;;;6.54;100.00;100858.06;5068454;28;20060;-79
2022/01/04 02:41:48;;;;;;;60.70;57.55;;;;;;;6.61;100.00;100849.25;5069390;28;20366;-79
2022/01/04 02:44:15;;;;;;;68.05;64.45;;;;;;;6.70;100.00;100870.31;5071666;28;20538;-82
2022/01/04 02:46:41;;;;;;;59.85;56.63;;;;;;;6.43;100.00;100867.19;5068828;28;20056;-79
2022/01/04 02:49:08;;;;;;;69.88;66.15;;;;;;;6.65;100.00;100861.06;5070881;28;20451;-78
2022/01/04 02:51:35;;;;;;;60.83;57.50;;;;;;;6.53;100.00;100862.50;5071787;28;20105;-80
2022/01/04 02:54:03;;;;;;;55.38;52.15;;;;;;;6.47;100.00;100852.63;5067735;28;20036;-79
2022/01/04 02:56:30;;;;;;;59.75;56.45;;;;;;;6.51;100.00;100867.16;5069060;28;20098;-79
2022/01/04 02:59:03;;;;;;;58.42;55.13;;;;;;;6.50;100.00;100883.94;5067322;28;20716;-78
2022/01/04 03:01:44;;;;;;;64.68;61.00;;;;;;;6.39;100.00;100882.56;5167132;22;20446;-81
2022/01/04 03:04:18;;;;;;;63.97;60.30;;;;;;;6.22;100.00;100873.09;5040645;28;20463;-80
2022/01/04 03:06:44;;;;;;;66.00;62.40;;;;;;;6.43;100.00;100889.09;5033929;28;20551;-78
2022/01/04 03:09:13;;;;;;;58.15;54.95;;;;;;;6.62;100.00;100892.28;5041346;28;20053;-78
2022/01/04 03:11:40;;;;;;;65.18;61.58;;;;;;;6.20;100.00;100893.53;5048047;28;20123;-78
2022/01/04 03:14:06;;;;;;;62.45;59.22;;;;;;;6.49;100.00;100897.34;5043355;28;20532;-80
2022/01/04 03:16:35;;;;;;;64.97;61.15;;;;;;;6.35;100.00;100893.59;5039471;28;20053;-80
2022/01/04 03:19:06;;;;;;;73.45;69.65;;;;;;;6.78;100.00;100907.22;5039997;28;20055;-80
2022/01/04 03:21:34;;;;;;;66.32;62.40;;;;;;;6.68;100.00;100910.06;5046662;28;20468;-80
2022/01/04 03:24:01;;;;;;;71.65;67.80;;;;;;;6.65;100.00;100910.41;5043180;28;20128;-80
2022/01/04 03:26:30;;;;;;;65.28;61.88;;;;;;;6.36;100.00;100900.56;5045408;28;20049;-79
2022/01/04 03:28:57;;;;;;;67.47;63.88;;;;;;;6.61;100.00;100888.84;5049455;28;20049;-80
2022/01/04 03:31:24;;;;;;;61.50;57.85;;;;;;;6.64;100.00;100903.50;5039811;28;20050;-78
2022/01/04 03:33:51;;;;;;;62.78;59.10;;;;;;;6.71;100.00;100907.06;5055491;28;20123;-78
2022/01/04 03:36:21;;;;;;;66.70;62.85;;;;;;;6.46;100.00;100893.22;5044995;28;20048;-78
2022/01/04 03:38:49;;;;;;;58.72;55.38;;;;;;;6.20;100.00;100901.44;5048630;28;20064;-79
2022/01/04 03:41:16;;;;;;;70.57;66.57;;;;;;;6.35;100.00;100901.53;5043227;28;20374;-79
2022/01/04 03:43:44;;;;;;;71.78;68.07;;;;;;;6.53;100.00;100903.91;5043795;28;20481;-78
2022/01/04 03:46:12;;;;;;;69.03;65.40;;;;;;;6.23;100.00;100906.38;5045330;28;20045;-79
2022/01/04 03:48:39;;;;;;;72.63;68.72;;;;;;;5.99;100.00;100911.75;5053870;28;20114;-80
2022/01/04 03:51:07;;;;;;;70.45;66.57;;;;;;;6.08;100.00;100924.75;5035807;28;20136;-80
2022/01/04 03:53:35;;;;;;;75.57;71.50;;;;;;;5.85;100.00;100927.28;5042234;28;20111;-79
2022/01/04 03:56:04;;;;;;;66.93;62.92;;;;;;;5.68;100.00;100931.75;5042346;28;20474;-81
2022/01/04 03:58:32;;;;;;;62.33;58.72;;;;;;;5.96;100.00;100932.22;5040635;28;20466;-79
2022/01/04 04:01:01;;;;;;;64.47;60.80;;;;;;;5.81;100.00;100933.88;5048529;28;20481;-78
2022/01/04 04:03:27;;;;;;;65.00;60.30;;;;;;;5.48;100.00;100928.69;5035908;28;20071;-77
2022/01/04 04:05:54;;;;;;;61.63;57.88;;;;;;;5.46;100.00;100937.72;5041381;28;20433;-78
2022/01/04 04:08:23;;;;;;;58.50;55.03;;;;;;;5.55;100.00;100933.28;5052618;28;20057;-79
2022/01/04 04:10:50;;;;;;;56.85;53.00;;;;;;;5.53;100.00;100930.78;5045477;28;20045;-80
2022/01/04 04:13:17;;;;;;;69.47;65.07;;;;;;;5.45;100.00;100921.13;5049975;28;20056;-80
2022/01/04 04:15:44;;;;;;;62.97;59.17;;;;;;;5.60;100.00;100929.16;5056794;28;20057;-80
2022/01/04 04:18:16;;;;;;;61.00;56.92;;;;;;;5.50;100.00;100929.31;5037931;28;20116;-81
2022/01/04 04:20:43;;;;;;;53.08;49.78;;;;;;;5.96;100.00;100939.28;5040321;28;20072;-80
2022/01/04 04:23:16;;;;;;;55.80;52.47;;;;;;;5.76;100.00;100944.09;5053002;28;20045;-81
2022/01/04 04:25:43;;;;;;;59.00;55.40;;;;;;;5.65;100.00;100944.44;5041925;28;20540;-78
2022/01/04 04:28:10;;;;;;;54.55;50.97;;;;;;;5.50;100.00;100941.66;5045636;28;20083;-79
2022/01/04 04:30:37;;;;;;;57.25;53.33;;;;;;;5.35;100.00;100946.78;5051613;28;20067;-80
2022/01/04 04:33:04;;;;;;;58.30;54.88;;;;;;;5.31;100.00;100953.38;5048534;28;20045;-79
2022/01/04 04:35:33;;;;;;;53.45;49.65;;;;;;;5.18;100.00;100951.25;5047803;28;20473;-80
2022/01/04 04:38:00;;;;;;;58.50;54.85;;;;;;;5.01;100.00;100957.50;5045577;28;20049;-79
2022/01/04 04:40:27;;;;;;;59.85;56.08;;;;;;;4.59;100.00;100959.22;5045138;28;20048;-80
2022/01/04 04:42:54;;;;;;;59.92;56.17;;;;;;;4.85;100.00;100968.84;5043058;28;20115;-80
2022/01/04 04:45:21;;;;;;;71.32;64.30;;;;;;;4.81;100.00;100963.09;5049029;28;20060;-79
2022/01/04 04:47:50;;;;;;;60.80;56.33;;;;;;;4.23;100.00;100969.13;5054632;28;20053;-79
2022/01/04 04:50:17;;;;;;;58.58;54.17;;;;;;;4.13;100.00;100971.06;5048584;28;20382;-78
2022/01/04 04:52:47;;;;;;;64.43;59.47;;;;;;;4.15;100.00;100965.69;5043126;28;20412;-79
2022/01/04 04:55:13;;;;;;;59.40;54.70;;;;;;;4.33;100.00;100956.72;5041010;28;20440;-78
2022/01/04 04:57:41;;;;;;;58.00;53.35;;;;;;;4.00;100.00;100961.00;5046668;28;20045;-79
2022/01/04 05:00:10;;;;;;;58.35;53.78;;;;;;;3.66;100.00;100956.56;5044730;28;20460;-79
2022/01/04 05:02:37;;;;;;;62.88;57.83;;;;;;;3.83;100.00;100957.47;5051062;28;20045;-79
2022/01/04 05:05:05;;;;;;;59.40;54.63;;;;;;;3.85;100.00;100958.13;5048277;28;20188;-78
2022/01/04 05:07:31;;;;;;;61.45;55.75;;;;;;;3.90;100.00;100962.91;5039740;28;20107;-81
2022/01/04 05:10:00;;;;;;;62.75;57.17;;;;;;;3.67;100.00;100960.81;5042286;28;20119;-78
2022/01/04 05:12:27;;;;;;;65.53;59.80;;;;;;;3.55;100.00;100950.72;5047655;28;20060;-78
2022/01/04 05:14:53;;;;;;;65.88;59.45;;;;;;;3.58;100.00;100950.41;5047230;28;20546;-77
2022/01/04 05:17:21;;;;;;;86.68;78.60;;;;;;;3.70;100.00;100943.94;5039306;28;20551;-78
2022/01/04 05:19:49;;;;;;;89.68;81.05;;;;;;;3.45;100.00;100953.47;5040982;28;20111;-81
2022/01/04 05:22:16;;;;;;;87.47;79.10;;;;;;;3.51;100.00;100954.63;5035840;28;20100;-80
2022/01/04 05:24:44;;;;;;;91.80;82.57;;;;;;;4.11;100.00;100950.22;5044837;28;20448;-79
2022/01/04 05:27:12;;;;;;;99.55;90.10;;;;;;;3.74;100.00;100950.50;5043886;28;20045;-79
2022/01/04 05:29:40;;;;;;;94.28;85.25;;;;;;;4.09;100.00;100957.44;5044558;28;20052;-79
2022/01/04 05:32:08;;;;;;;91.30;83.25;;;;;;;4.56;100.00;100953.47;5052565;28;20052;-80
2022/01/04 05:34:35;;;;;;;62.65;58.05;;;;;;;4.51;100.00;100948.72;5058137;28;20053;-79
2022/01/04 05:37:02;;;;;;;60.53;55.92;;;;;;;4.34;100.00;100955.72;5041005;28;20448;-79
2022/01/04 05:39:29;;;;;;;63.38;58.40;;;;;;;4.36;100.00;100959.03;5047621;28;20513;-77
2022/01/04 05:41:56;;;;;;;68.07;63.33;;;;;;;4.10;100.00;100971.41;5043417;28;20206;-79
2022/01/04 05:44:24;;;;;;;77.03;72.07;;;;;;;4.58;100.00;100962.84;5042440;28;20063;-79
2022/01/04 05:46:51;;;;;;;87.90;80.90;;;;;;;4.51;100.00;100964.50;5056413;28;20468;-79
2022/01/04 05:49:18;;;;;;;74.70;69.10;;;;;;;4.26;100.00;100971.44;5056993;28;20057;-78
2022/01/04 05:51:45;;;;;;;70.82;65.55;;;;;;;4.40;100.00;100975.31;5061332;28;20465;-80
2022/01/04 05:54:13;;;;;;;74.88;68.25;;;;;;;4.96;100.00;100965.06;5062305;28;20461;-79
2022/01/04 05:56:40;;;;;;;65.45;60.72;;;;;;;5.06;100.00;100971.00;5061063;28;20045;-79
2022/01/04 05:59:07;;;;;;;64.88;60.40;;;;;;;4.82;100.00;100966.53;5056766;28;20041;-78
2022/01/04 06:01:35;;;;;;;90.70;83.68;;;;;;;4.55;100.00;100970.25;5058190;28;20045;-78
2022/01/04 06:04:02;;;;;;;82.22;76.20;;;;;;;5.27;100.00;100970.53;5055888;28;20107;-78
2022/01/04 06:06:29;;;;;;;90.50;82.28;;;;;;;4.80;100.00;100971.13;5047089;28;20056;-80
2022/01/04 06:08:55;;;;;;;88.70;81.25;;;;;;;4.93;100.00;100976.75;5042710;28;20057;-79
2022/01/04 06:11:45;;;;;;;87.70;80.20;;;;;;;4.98;100.00;100976.25;5042027;28;20128;-79
2022/01/04 06:17:06;;;;;;;147.53;119.93;;;;;;;5.12;100.00;100980.88;5049704;28;20052;-78
2022/01/04 06:19:33;;;;;;;89.18;81.72;;;;;;;5.42;100.00;100962.78;5039041;28;20440;-79
2022/01/04 06:22:00;;;;;;;120.47;109.57;;;;;;;5.00;100.00;100966.41;5045689;28;20045;-79
2022/01/04 06:24:27;;;;;;;95.82;87.85;;;;;;;6.09;100.00;100970.41;5054253;28;20037;-79
2022/01/04 06:26:54;;;;;;;93.35;85.78;;;;;;;5.87;100.00;100974.53;5051660;28;20179;-79
2022/01/04 06:29:22;;;;;;;89.32;82.03;;;;;;;5.54;100.00;100976.41;5031416;28;20095;-79
2022/01/04 06:31:49;;;;;;;109.63;100.22;;;;;;;5.24;100.00;100976.13;5031506;28;20141;-80
2022/01/04 06:34:17;;;;;;;98.43;89.90;;;;;;;5.24;100.00;100984.00;5045483;28;20520;-79
2022/01/04 06:36:44;;;;;;;99.60;91.10;;;;;;;5.10;100.00;100989.94;5046683;28;20045;-82
2022/01/04 06:39:11;;;;;;;95.50;87.53;;;;;;;5.07;100.00;100985.00;5041988;28;20045;-79
2022/01/04 06:41:38;;;;;;;98.72;90.25;;;;;;;5.24;100.00;100974.31;5043133;28;20061;-79
2022/01/04 06:44:05;;;;;;;94.95;87.03;;;;;;;5.09;100.00;100981.22;5041989;28;20504;-79
2022/01/04 06:46:32;;;;;;;114.03;104.25;;;;;;;5.20;100.00;100977.41;5043067;28;20102;-82
2022/01/04 06:49:00;;;;;;;90.13;82.88;;;;;;;5.66;100.00;100975.91;5050718;28;20725;-78
2022/01/04 06:51:28;;;;;;;88.35;80.78;;;;;;;5.69;100.00;100975.59;5046942;28;20529;-79
2022/01/04 06:53:55;;;;;;;87.85;80.28;;;;;;;5.74;100.00;100993.50;5045644;28;20049;-78
2022/01/04 06:56:23;;;;;;;95.07;87.28;;;;;;;5.86;100.00;100994.81;5051767;28;20107;-79
2022/01/04 06:58:49;;;;;;;87.85;80.68;;;;;;;5.77;100.00;101003.72;5044188;28;20060;-78
2022/01/04 07:01:16;;;;;;;83.50;76.80;;;;;;;5.93;100.00;101000.25;5052020;28;20106;-79
2022/01/04 07:03:47;;;;;;;87.88;80.15;;;;;;;6.01;100.00;101000.25;5036684;28;20468;-78
2022/01/04 07:06:14;;;;;;;88.75;81.10;;;;;;;6.05;100.00;100998.94;5051554;28;20081;-81
2022/01/04 07:08:42;;;;;;;84.68;77.78;;;;;;;6.14;100.00;100999.72;5040292;28;20543;-78
2022/01/04 07:11:09;;;;;;;82.43;76.00;;;;;;;6.17;100.00;101002.84;5048175;28;20095;-80
2022/01/04 07:13:42;;;;;;;82.07;75.65;;;;;;;6.22;100.00;101007.59;5040126;28;20049;-79
2022/01/04 07:16:09;;;;;;;84.28;77.80;;;;;;;6.32;100.00;101010.03;5044469;28;20110;-78
2022/01/04 07:18:36;;;;;;;80.53;74.57;;;;;;;6.31;100.00;101006.59;5045315;28;20053;-82
2022/01/04 07:21:03;;;;;;;79.60;73.80;;;;;;;6.30;100.00;101014.69;5052532;28;20045;-79
2022/01/04 07:23:30;;;;;;;77.78;71.55;;;;;;;6.32;100.00;101023.22;5050843;28;20056;-79
2022/01/04 07:25:58;;;;;;;88.43;79.50;;;;;;;6.34;100.00;101029.97;5045948;28;20049;-79
2022/01/04 07:28:25;;;;;;;98.57;88.20;;;;;;;6.36;100.00;101033.28;5042380;28;20123;-79
2022/01/04 07:30:52;;;;;;;85.95;78.15;;;;;;;6.45;100.00;101030.63;5046654;28;20059;-78
2022/01/04 07:33:19;;;;;;;114.75;102.85;;;;;;;6.61;100.00;101028.72;5040857;28;20127;-80
2022/01/04 07:35:46;;;;;;;93.03;84.43;;;;;;;6.94;100.00;101030.38;5045491;28;20049;-78
2022/01/04 07:38:13;;;;;;;87.50;80.45;;;;;;;7.02;100.00;101025.03;5042116;28;20145;-78
2022/01/04 07:40:40;;;;;;;82.43;76.25;;;;;;;7.23;100.00;101025.22;5041927;28;20106;-78
2022/01/04 07:43:08;;;;;;;75.88;70.22;;;;;;;7.67;100.00;101029.81;5042997;28;20049;-78
2022/01/04 07:45:36;;;;;;;79.05;73.05;;;;;;;7.98;100.00;101024.38;5050278;28;20056;-79
2022/01/04 07:48:03;;;;;;;76.70;71.25;;;;;;;8.39;100.00;101010.75;5048864;28;20119;-79
2022/01/04 07:50:30;;;;;;;84.55;77.65;;;;;;;8.68;100.00;101014.34;5045214;28;20060;-79
2022/01/04 07:52:57;;;;;;;92.00;84.32;;;;;;;9.22;100.00;101013.88;5058885;28;20053;-80
2022/01/04 07:55:24;;;;;;;79.55;73.55;;;;;;;9.40;100.00;101005.47;5052987;28;20049;-79
2022/01/04 07:57:51;;;;;;;75.03;69.32;;;;;;;9.51;100.00;101001.50;5052835;28;20041;-80
2022/01/04 08:00:20;;;;;;;75.82;70.13;;;;;;;10.07;100.00;100991.66;5044422;28;20115;-78
2022/01/04 08:02:47;;;;;;;76.53;70.63;;;;;;;10.51;100.00;100998.47;5057875;28;20123;-78
2022/01/04 08:05:14;;;;;;;77.50;71.68;;;;;;;10.75;100.00;100990.97;5053886;28;20154;-79
2022/01/04 08:07:42;;;;;;;72.53;67.07;;;;;;;10.72;100.00;100992.19;5040135;28;20053;-80
2022/01/04 08:10:10;;;;;;;77.07;71.57;;;;;;;11.12;100.00;101002.91;5051025;28;20056;-79
2022/01/04 08:12:37;;;;;;;70.03;64.85;;;;;;;11.58;100.00;101004.78;5045802;28;20052;-78
2022/01/04 08:15:04;;;;;;;67.18;62.42;;;;;;;12.18;100.00;101014.56;5050346;28;20107;-79
2022/01/04 08:17:33;;;;;;;74.30;68.60;;;;;;;11.70;100.00;101002.31;5052302;28;20119;-78
2022/01/04 08:20:00;;;;;;;72.55;66.95;;;;;;;11.78;100.00;101004.75;5048859;28;20084;-81
2022/01/04 08:22:31;;;;;;;67.32;62.70;;;;;;;11.87;100.00;101003.56;5055726;28;20107;-83
2022/01/04 08:24:58;;;;;;;82.57;75.78;;;;;;;12.22;100.00;101011.25;5050951;28;20037;-78
2022/01/04 08:27:25;;;;;;;81.80;76.28;;;;;;;11.04;100.00;101012.91;5053759;28;20052;-79
2022/01/04 08:29:52;;;;;;;81.85;75.78;;;;;;;11.82;100.00;101021.94;5053141;28;20551;-80
2022/01/04 08:32:19;;;;;;;75.97;70.88;;;;;;;12.24;100.00;101017.19;5055005;28;20517;-79
2022/01/04 08:34:47;;;;;;;78.95;73.65;;;;;;;11.70;100.00;101013.75;5055359;28;20104;-80
2022/01/04 08:37:14;;;;;;;75.30;70.15;;;;;;;12.44;100.00;101008.34;5053947;28;20052;-80
2022/01/04 08:39:40;;;;;;;79.53;73.75;;;;;;;12.10;100.00;101016.41;5046779;28;20489;-80
2022/01/04 08:42:07;;;;;;;78.38;73.03;;;;;;;12.83;100.00;101015.31;5045557;28;20112;-79
2022/01/04 08:44:39;;;;;;;81.43;76.00;;;;;;;12.67;100.00;101005.94;5057429;28;20045;-78
2022/01/04 08:47:06;;;;;;;73.10;68.25;;;;;;;13.25;100.00;101010.34;5058723;28;20060;-78
2022/01/04 08:49:32;;;;;;;70.38;65.78;;;;;;;11.78;100.00;101001.28;5048444;28;20485;-79
2022/01/04 08:52:00;;;;;;;81.22;75.85;;;;;;;13.75;100.00;101010.38;5048536;28;20052;-78
2022/01/04 08:54:27;;;;;;;78.68;73.75;;;;;;;13.30;100.00;101010.53;5055066;28;20123;-78
2022/01/04 08:56:54;;;;;;;74.05;69.45;;;;;;;13.50;100.00;101005.84;5056094;28;20056;-80
2022/01/04 08:59:21;;;;;;;76.28;71.32;;;;;;;13.18;100.00;100997.03;5050477;28;20088;-78
2022/01/04 09:01:48;;;;;;;80.28;74.82;;;;;;;12.83;100.00;100986.81;5045406;28;20048;-79
2022/01/04 09:04:15;;;;;;;75.72;70.82;;;;;;;13.56;100.00;100984.69;5051787;28;20056;-78
2022/01/04 09:06:42;;;;;;;79.43;74.30;;;;;;;12.10;100.00;100986.28;5048707;28;20041;-78
2022/01/04 09:09:10;;;;;;;79.80;74.18;;;;;;;12.85;100.00;100986.59;5053741;28;20053;-79
2022/01/04 09:11:37;;;;;;;89.57;83.70;;;;;;;13.34;100.00;100978.91;5048788;28;20111;-80
2022/01/04 09:14:21;;;;;;;84.15;78.05;;;;;;;15.17;100.00;100974.53;5046358;28;20460;-80
2022/01/04 09:19:45;;;;;;;83.35;77.55;;;;;;;13.96;100.00;100963.75;4995005;28;20117;-79
2022/01/04 09:22:12;;;;;;;79.72;74.13;;;;;;;12.74;100.00;100961.44;5040028;28;20044;-78
2022/01/04 09:24:40;;;;;;;91.55;85.68;;;;;;;15.16;100.00;100962.16;5041816;28;20041;-79
2022/01/04 09:27:07;;;;;;;85.47;79.78;;;;;;;14.10;100.00;100959.06;5043038;28;20122;-78
2022/01/04 09:29:34;;;;;;;83.55;78.03;;;;;;;14.36;100.00;100961.41;5043238;28;20112;-80
2022/01/04 09:32:02;;;;;;;85.18;79.60;;;;;;;14.59;100.00;100943.91;5033644;28;20057;-79
2022/01/04 09:34:29;;;;;;;92.30;86.47;;;;;;;15.31;100.00;100943.81;5037081;28;20059;-78
2022/01/04 09:36:56;;;;;;;91.88;86.18;;;;;;;17.18;100.00;100944.34;5041915;28;20107;-78
2022/01/04 09:39:25;;;;;;;85.38;80.18;;;;;;;16.62;100.00;100933.47;5043411;28;20474;-80
2022/01/04 09:41:55;;;;;;;91.05;85.10;;;;;;;17.39;100.00;100926.69;5042852;28;20096;-78
2022/01/04 09:44:25;;;;;;;103.28;95.57;;;;;;;16.69;99.06;100928.75;5049434;28;20385;-79
2022/01/04 09:46:52;;;;;;;96.93;90.63;;;;;;;16.75;100.00;100929.66;5042454;28;20056;-78
2022/01/04 09:49:19;;;;;;;90.68;84.50;;;;;;;16.08;100.00;100927.59;5050597;28;20114;-79
2022/01/04 09:51:46;;;;;;;99.75;93.50;;;;;;;16.61;100.00;100914.91;5043600;28;20038;-79
2022/01/04 09:54:13;;;;;;;95.78;89.47;;;;;;;15.47;100.00;100910.19;5042072;28;20126;-79
2022/01/04 09:56:40;;;;;;;93.22;87.03;;;;;;;15.12;100.00;100906.44;5043742;28;20046;-79
2022/01/04 09:59:08;;;;;;;102.72;96.07;;;;;;;14.75;100.00;100903.13;5044632;28;20049;-77
2022/01/04 10:01:38;;;;;;;78.80;72.50;;;;;;;17.36;100.00;100897.66;5039532;28;20041;-79
2022/01/04 10:04:05;;;;;;;67.47;62.55;;;;;;;17.27;97.43;100893.75;5051088;28;20060;-79
2022/01/04 10:06:39;;;;;;;67.78;62.88;;;;;;;15.80;100.00;100890.88;5042092;28;20057;-77
2022/01/04 10:09:11;;;;;;;72.75;67.93;;;;;;;14.85;100.00;100882.00;5038742;28;20064;-77
2022/01/04 10:11:42;;;;;;;71.60;67.00;;;;;;;15.22;100.00;100875.63;5044407;28;20050;-78
2022/01/04 10:17:04;;;;;;;72.47;68.07;;;;;;;15.91;100.00;100873.94;5084031;27;20761;-78
2022/01/04 10:19:31;;;;;;;78.25;73.20;;;;;;;17.37;97.66;100867.09;5078002;28;20114;-79
2022/01/04 10:22:24;;;;;;;80.50;75.10;;;;;;;15.85;100.00;100861.50;5077215;28;20049;-80
2022/01/04 10:25:07;;;;;;;72.10;67.40;;;;;;;16.46;100.00;100854.63;5068195;28;20049;-79
2022/01/04 10:27:35;;;;;;;76.78;71.95;;;;;;;16.38;95.83;100843.47;5070672;28;20056;-80
2022/01/04 10:30:22;;;;;;;82.07;76.65;;;;;;;15.04;100.00;100829.25;5076264;28;20451;-79
2022/01/04 10:32:53;;;;;;;72.10;67.13;;;;;;;17.21;96.53;100825.78;5070097;28;20426;-81
2022/01/04 10:35:26;;;;;;;70.97;66.57;;;;;;;17.63;97.83;100828.75;5075803;28;20055;-78
2022/01/04 10:37:53;;;;;;;82.82;77.32;;;;;;;16.87;100.00;100841.09;5079752;28;20045;-80
2022/01/04 10:40:21;;;;;;;82.93;77.20;;;;;;;17.83;93.91;100822.84;5082006;28;20052;-79
2022/01/04 10:42:48;;;;;;;79.72;74.13;;;;;;;18.33;93.17;100822.81;5081548;28;20044;-80
2022/01/04 10:45:27;;;;;;;81.97;76.57;;;;;;;17.79;93.58;100820.91;5072849;28;20048;-79
2022/01/04 10:47:57;;;;;;;77.55;71.75;;;;;;;18.66;88.70;100814.47;5070842;28;20052;-80
2022/01/04 10:50:32;;;;;;;82.20;76.63;;;;;;;18.04;95.75;100817.69;5074253;28;20048;-80
2022/01/04 10:53:00;;;;;;;79.22;74.13;;;;;;;16.07;99.19;100823.34;5078193;28;20056;-80
2022/01/04 10:55:31;;;;;;;87.93;82.07;;;;;;;16.89;99.41;100825.59;5079402;28;20544;-79
2022/01/04 10:57:58;;;;;;;81.00;75.13;;;;;;;15.96;100.00;100825.03;5078491;28;20048;-79
2022/01/04 11:00:26;;;;;;;75.90;70.72;;;;;;;15.37;100.00;100827.00;5073742;28;20080;-80
2022/01/04 11:02:55;;;;;;;74.43;69.55;;;;;;;17.60;100.00;100815.00;5072017;28;20057;-80
2022/01/04 11:05:22;;;;;;;74.53;69.53;;;;;;;15.67;100.00;100816.13;5071951;28;20045;-78
2022/01/04 11:08:09;;;;;;;81.65;76.35;;;;;;;16.12;100.00;100810.84;5084308;28;20133;-79
2022/01/04 11:10:37;;;;;;;83.72;78.13;;;;;;;17.44;96.28;100800.59;5074108;28;20052;-79
2022/01/04 11:13:04;;;;;;;91.03;85.30;;;;;;;15.57;100.00;100801.47;5070074;28;20366;-78
2022/01/04 11:15:33;;;;;;;91.50;85.60;;;;;;;16.71;100.00;100807.84;5068768;28;20041;-79
2022/01/04 11:18:01;;;;;;;81.03;75.53;;;;;;;15.65;100.00;100808.34;5077228;28;20056;-79
2022/01/04 11:20:28;;;;;;;80.30;74.63;;;;;;;15.66;100.00;100809.94;5065568;28;20044;-80
2022/01/04 11:22:58;;;;;;;75.13;70.05;;;;;;;17.21;95.72;100806.19;5072807;28;20469;-78